sensor_id;sensor_type;location;lat;lon;timestamp;temperature;humidity
13446;DHT22;6795;51.232;3.764;2022-07-12T00:00:11;17.20;99.90
13446;DHT22;6795;51.232;3.764;2022-07-12T00:02:41;17.30;99.90
13446;DHT22;6795;51.232;3.764;2022-07-12T00:05:10;17.30;99.90
13446;DHT22;6795;51.232;3.764;2022-07-12T00:07:38;17.30;99.90
13446;DHT22;6795;51.232;3.764;2022-07-12T00:10:09;17.30;99.90
13446;DHT22;6795;51.232;3.764;2022-07-12T00:12:37;17.30;99.90
13446;DHT22;6795;51.232;3.764;2022-07-12T00:15:07;17.20;99.90
13446;DHT22;6795;51.232;3.764;2022-07-12T00:17:37;17.20;99.90
13446;DHT22;6795;51.232;3.764;2022-07-12T00:20:08;17.10;99.90
13446;DHT22;6795;51.232;3.764;2022-07-12T00:22:36;17.00;99.90
13446;DHT22;6795;51.232;3.764;2022-07-12T00:25:05;16.90;99.90
13446;DHT22;6795;51.232;3.764;2022-07-12T00:27:34;16.80;99.90
13446;DHT22;6795;51.232;3.764;2022-07-12T00:30:04;16.70;99.90
13446;DHT22;6795;51.232;3.764;2022-07-12T00:32:32;16.60;99.90
13446;DHT22;6795;51.232;3.764;2022-07-12T00:35:00;16.50;99.90
13446;DHT22;6795;51.232;3.764;2022-07-12T00:37:31;16.50;99.90
13446;DHT22;6795;51.232;3.764;2022-07-12T00:39:59;16.40;99.90
13446;DHT22;6795;51.232;3.764;2022-07-12T00:42:27;16.40;99.90
13446;DHT22;6795;51.232;3.764;2022-07-12T00:44:56;16.20;99.90
13446;DHT22;6795;51.232;3.764;2022-07-12T00:47:31;16.10;99.90
13446;DHT22;6795;51.232;3.764;2022-07-12T00:50:00;16.10;99.90
13446;DHT22;6795;51.232;3.764;2022-07-12T00:52:30;16.30;99.90
13446;DHT22;6795;51.232;3.764;2022-07-12T00:54:58;16.20;99.90
13446;DHT22;6795;51.232;3.764;2022-07-12T00:57:27;16.00;99.90
13446;DHT22;6795;51.232;3.764;2022-07-12T00:59:56;16.00;99.90
13446;DHT22;6795;51.232;3.764;2022-07-12T01:02:28;16.00;99.90
13446;DHT22;6795;51.232;3.764;2022-07-12T01:04:57;15.90;99.90
13446;DHT22;6795;51.232;3.764;2022-07-12T01:07:27;15.90;99.90
13446;DHT22;6795;51.232;3.764;2022-07-12T01:10:01;15.90;99.90
13446;DHT22;6795;51.232;3.764;2022-07-12T01:12:32;16.00;99.90
13446;DHT22;6795;51.232;3.764;2022-07-12T01:15:02;16.10;99.90
13446;DHT22;6795;51.232;3.764;2022-07-12T01:17:35;16.10;99.90
13446;DHT22;6795;51.232;3.764;2022-07-12T01:20:05;15.90;99.90
13446;DHT22;6795;51.232;3.764;2022-07-12T01:22:36;15.90;99.90
13446;DHT22;6795;51.232;3.764;2022-07-12T01:25:07;15.90;99.90
13446;DHT22;6795;51.232;3.764;2022-07-12T01:27:37;15.70;99.90
13446;DHT22;6795;51.232;3.764;2022-07-12T01:30:06;15.60;99.90
13446;DHT22;6795;51.232;3.764;2022-07-12T01:32:35;15.60;99.90
13446;DHT22;6795;51.232;3.764;2022-07-12T01:35:04;15.50;99.90
13446;DHT22;6795;51.232;3.764;2022-07-12T01:37:34;15.40;99.90
13446;DHT22;6795;51.232;3.764;2022-07-12T01:40:05;15.30;99.90
13446;DHT22;6795;51.232;3.764;2022-07-12T01:42:35;15.10;99.90
13446;DHT22;6795;51.232;3.764;2022-07-12T01:45:05;15.10;99.90
13446;DHT22;6795;51.232;3.764;2022-07-12T01:47:34;15.00;99.90
13446;DHT22;6795;51.232;3.764;2022-07-12T01:50:05;14.90;99.90
13446;DHT22;6795;51.232;3.764;2022-07-12T01:52:34;14.90;99.90
13446;DHT22;6795;51.232;3.764;2022-07-12T01:55:04;14.90;99.90
13446;DHT22;6795;51.232;3.764;2022-07-12T01:57:32;14.90;99.90
13446;DHT22;6795;51.232;3.764;2022-07-12T02:00:04;14.90;99.90
13446;DHT22;6795;51.232;3.764;2022-07-12T02:02:33;14.80;99.90
13446;DHT22;6795;51.232;3.764;2022-07-12T02:05:03;14.80;99.90
13446;DHT22;6795;51.232;3.764;2022-07-12T02:07:33;14.80;99.90
13446;DHT22;6795;51.232;3.764;2022-07-12T02:10:03;14.70;99.90
13446;DHT22;6795;51.232;3.764;2022-07-12T02:12:32;14.70;99.90
13446;DHT22;6795;51.232;3.764;2022-07-12T02:15:00;14.70;99.90
13446;DHT22;6795;51.232;3.764;2022-07-12T02:17:30;14.60;99.90
13446;DHT22;6795;51.232;3.764;2022-07-12T02:19:58;14.50;99.90
13446;DHT22;6795;51.232;3.764;2022-07-12T02:22:26;14.50;99.90
13446;DHT22;6795;51.232;3.764;2022-07-12T02:24:55;14.40;99.90
13446;DHT22;6795;51.232;3.764;2022-07-12T02:27:23;14.40;99.90
13446;DHT22;6795;51.232;3.764;2022-07-12T02:29:51;14.30;99.90
13446;DHT22;6795;51.232;3.764;2022-07-12T02:32:19;14.40;99.90
13446;DHT22;6795;51.232;3.764;2022-07-12T02:34:49;14.30;99.90
13446;DHT22;6795;51.232;3.764;2022-07-12T02:37:17;14.30;99.90
13446;DHT22;6795;51.232;3.764;2022-07-12T02:39:46;14.30;99.90
13446;DHT22;6795;51.232;3.764;2022-07-12T02:42:14;14.20;99.90
13446;DHT22;6795;51.232;3.764;2022-07-12T02:44:42;14.20;99.90
13446;DHT22;6795;51.232;3.764;2022-07-12T02:47:10;14.20;99.90
13446;DHT22;6795;51.232;3.764;2022-07-12T02:49:39;14.20;99.90
13446;DHT22;6795;51.232;3.764;2022-07-12T02:52:08;14.20;99.90
13446;DHT22;6795;51.232;3.764;2022-07-12T02:54:37;14.20;99.90
13446;DHT22;6795;51.232;3.764;2022-07-12T02:57:05;14.30;99.90
13446;DHT22;6795;51.232;3.764;2022-07-12T02:59:33;14.20;99.90
13446;DHT22;6795;51.232;3.764;2022-07-12T03:02:01;14.20;99.90
13446;DHT22;6795;51.232;3.764;2022-07-12T03:04:30;14.20;99.90
13446;DHT22;6795;51.232;3.764;2022-07-12T03:06:58;14.10;99.90
13446;DHT22;6795;51.232;3.764;2022-07-12T03:09:27;14.20;99.90
13446;DHT22;6795;51.232;3.764;2022-07-12T03:11:57;14.30;99.90
13446;DHT22;6795;51.232;3.764;2022-07-12T03:14:25;14.20;99.90
13446;DHT22;6795;51.232;3.764;2022-07-12T03:16:53;14.20;99.90
13446;DHT22;6795;51.232;3.764;2022-07-12T03:19:22;14.30;99.90
13446;DHT22;6795;51.232;3.764;2022-07-12T03:21:50;14.60;99.90
13446;DHT22;6795;51.232;3.764;2022-07-12T03:24:18;14.60;99.90
13446;DHT22;6795;51.232;3.764;2022-07-12T03:26:48;14.50;99.90
13446;DHT22;6795;51.232;3.764;2022-07-12T03:29:17;14.40;99.90
13446;DHT22;6795;51.232;3.764;2022-07-12T03:31:46;14.30;99.90
13446;DHT22;6795;51.232;3.764;2022-07-12T03:34:14;14.30;99.90
13446;DHT22;6795;51.232;3.764;2022-07-12T03:36:42;14.20;99.90
13446;DHT22;6795;51.232;3.764;2022-07-12T03:39:11;14.20;99.90
13446;DHT22;6795;51.232;3.764;2022-07-12T03:41:39;14.20;99.90
13446;DHT22;6795;51.232;3.764;2022-07-12T03:44:09;14.30;99.90
13446;DHT22;6795;51.232;3.764;2022-07-12T03:46:37;14.20;99.90
13446;DHT22;6795;51.232;3.764;2022-07-12T03:49:05;14.20;99.90
13446;DHT22;6795;51.232;3.764;2022-07-12T03:51:33;14.10;99.90
13446;DHT22;6795;51.232;3.764;2022-07-12T03:54:02;14.00;99.90
13446;DHT22;6795;51.232;3.764;2022-07-12T03:56:32;13.90;99.90
13446;DHT22;6795;51.232;3.764;2022-07-12T03:59:19;13.90;99.90
13446;DHT22;6795;51.232;3.764;2022-07-12T04:01:47;13.90;99.90
13446;DHT22;6795;51.232;3.764;2022-07-12T04:04:16;13.90;99.90
13446;DHT22;6795;51.232;3.764;2022-07-12T04:06:44;13.90;99.90
13446;DHT22;6795;51.232;3.764;2022-07-12T04:09:14;14.00;99.90
13446;DHT22;6795;51.232;3.764;2022-07-12T04:11:42;14.00;99.90
13446;DHT22;6795;51.232;3.764;2022-07-12T04:14:10;14.00;99.90
13446;DHT22;6795;51.232;3.764;2022-07-12T04:16:40;14.10;99.90
13446;DHT22;6795;51.232;3.764;2022-07-12T04:19:08;14.30;99.90
13446;DHT22;6795;51.232;3.764;2022-07-12T04:21:37;14.50;99.90
13446;DHT22;6795;51.232;3.764;2022-07-12T04:24:06;14.50;99.90
13446;DHT22;6795;51.232;3.764;2022-07-12T04:26:34;14.60;99.90
13446;DHT22;6795;51.232;3.764;2022-07-12T04:29:02;14.80;99.90
13446;DHT22;6795;51.232;3.764;2022-07-12T04:31:31;15.00;99.90
13446;DHT22;6795;51.232;3.764;2022-07-12T04:34:00;15.30;99.90
13446;DHT22;6795;51.232;3.764;2022-07-12T04:36:29;15.40;99.90
13446;DHT22;6795;51.232;3.764;2022-07-12T04:38:57;15.50;99.90
13446;DHT22;6795;51.232;3.764;2022-07-12T04:41:25;15.50;99.90
13446;DHT22;6795;51.232;3.764;2022-07-12T04:43:53;15.50;99.90
13446;DHT22;6795;51.232;3.764;2022-07-12T04:46:22;15.50;99.90
13446;DHT22;6795;51.232;3.764;2022-07-12T04:48:50;15.60;99.90
13446;DHT22;6795;51.232;3.764;2022-07-12T04:51:19;15.70;99.90
13446;DHT22;6795;51.232;3.764;2022-07-12T04:53:48;15.80;99.90
13446;DHT22;6795;51.232;3.764;2022-07-12T04:56:16;15.80;99.90
13446;DHT22;6795;51.232;3.764;2022-07-12T04:58:45;15.90;99.90
13446;DHT22;6795;51.232;3.764;2022-07-12T05:01:13;16.00;99.90
13446;DHT22;6795;51.232;3.764;2022-07-12T05:03:42;16.10;99.90
13446;DHT22;6795;51.232;3.764;2022-07-12T05:06:10;16.20;99.90
13446;DHT22;6795;51.232;3.764;2022-07-12T05:08:40;16.30;99.90
13446;DHT22;6795;51.232;3.764;2022-07-12T05:11:08;16.40;99.90
13446;DHT22;6795;51.232;3.764;2022-07-12T05:13:36;16.60;99.90
13446;DHT22;6795;51.232;3.764;2022-07-12T05:16:06;16.70;99.90
13446;DHT22;6795;51.232;3.764;2022-07-12T05:18:35;16.70;99.90
13446;DHT22;6795;51.232;3.764;2022-07-12T05:21:04;16.80;99.90
13446;DHT22;6795;51.232;3.764;2022-07-12T05:23:32;16.80;99.90
13446;DHT22;6795;51.232;3.764;2022-07-12T05:26:02;16.80;99.90
13446;DHT22;6795;51.232;3.764;2022-07-12T05:28:31;16.80;99.90
13446;DHT22;6795;51.232;3.764;2022-07-12T05:30:59;16.90;99.90
13446;DHT22;6795;51.232;3.764;2022-07-12T05:33:28;16.90;99.90
13446;DHT22;6795;51.232;3.764;2022-07-12T05:35:56;17.00;99.90
13446;DHT22;6795;51.232;3.764;2022-07-12T05:38:24;17.00;99.90
13446;DHT22;6795;51.232;3.764;2022-07-12T05:40:52;17.00;99.90
13446;DHT22;6795;51.232;3.764;2022-07-12T05:43:22;17.10;99.90
13446;DHT22;6795;51.232;3.764;2022-07-12T05:45:50;17.10;99.90
13446;DHT22;6795;51.232;3.764;2022-07-12T05:48:19;17.20;99.90
13446;DHT22;6795;51.232;3.764;2022-07-12T05:50:47;17.50;99.90
13446;DHT22;6795;51.232;3.764;2022-07-12T05:53:15;17.90;99.90
13446;DHT22;6795;51.232;3.764;2022-07-12T05:55:49;18.20;99.90
13446;DHT22;6795;51.232;3.764;2022-07-12T05:58:18;18.60;99.90
13446;DHT22;6795;51.232;3.764;2022-07-12T06:00:48;18.80;99.90
13446;DHT22;6795;51.232;3.764;2022-07-12T06:03:17;19.20;99.90
13446;DHT22;6795;51.232;3.764;2022-07-12T06:05:45;19.40;99.90
13446;DHT22;6795;51.232;3.764;2022-07-12T06:08:14;19.70;99.90
13446;DHT22;6795;51.232;3.764;2022-07-12T06:10:42;19.70;99.90
13446;DHT22;6795;51.232;3.764;2022-07-12T06:13:10;19.80;99.90
13446;DHT22;6795;51.232;3.764;2022-07-12T06:15:39;20.10;99.90
13446;DHT22;6795;51.232;3.764;2022-07-12T06:18:08;20.40;99.90
13446;DHT22;6795;51.232;3.764;2022-07-12T06:20:37;20.80;99.90
13446;DHT22;6795;51.232;3.764;2022-07-12T06:23:05;21.00;99.90
13446;DHT22;6795;51.232;3.764;2022-07-12T06:25:34;21.20;99.90
13446;DHT22;6795;51.232;3.764;2022-07-12T06:28:11;21.30;99.90
13446;DHT22;6795;51.232;3.764;2022-07-12T06:30:39;21.40;99.90
13446;DHT22;6795;51.232;3.764;2022-07-12T06:33:09;21.30;99.90
13446;DHT22;6795;51.232;3.764;2022-07-12T06:35:38;21.30;99.90
13446;DHT22;6795;51.232;3.764;2022-07-12T06:38:07;21.30;99.90
13446;DHT22;6795;51.232;3.764;2022-07-12T06:40:35;21.30;99.90
13446;DHT22;6795;51.232;3.764;2022-07-12T06:43:09;21.50;99.90
13446;DHT22;6795;51.232;3.764;2022-07-12T06:45:37;21.70;99.90
13446;DHT22;6795;51.232;3.764;2022-07-12T06:48:06;22.00;99.90
13446;DHT22;6795;51.232;3.764;2022-07-12T06:50:38;22.20;99.90
13446;DHT22;6795;51.232;3.764;2022-07-12T06:53:07;22.60;99.90
13446;DHT22;6795;51.232;3.764;2022-07-12T06:55:35;22.70;99.90
13446;DHT22;6795;51.232;3.764;2022-07-12T06:58:03;23.00;99.90
13446;DHT22;6795;51.232;3.764;2022-07-12T07:00:32;23.20;99.90
13446;DHT22;6795;51.232;3.764;2022-07-12T07:03:00;23.50;99.90
13446;DHT22;6795;51.232;3.764;2022-07-12T07:05:29;23.70;99.90
13446;DHT22;6795;51.232;3.764;2022-07-12T07:07:58;24.00;99.90
13446;DHT22;6795;51.232;3.764;2022-07-12T07:10:34;24.40;99.90
13446;DHT22;6795;51.232;3.764;2022-07-12T07:13:02;24.40;99.90
13446;DHT22;6795;51.232;3.764;2022-07-12T07:15:30;24.30;99.90
13446;DHT22;6795;51.232;3.764;2022-07-12T07:17:58;24.20;99.90
13446;DHT22;6795;51.232;3.764;2022-07-12T07:20:28;23.90;99.90
13446;DHT22;6795;51.232;3.764;2022-07-12T07:22:56;23.80;99.90
13446;DHT22;6795;51.232;3.764;2022-07-12T07:25:26;23.50;99.90
13446;DHT22;6795;51.232;3.764;2022-07-12T07:27:54;23.40;99.90
13446;DHT22;6795;51.232;3.764;2022-07-12T07:30:22;23.40;99.90
13446;DHT22;6795;51.232;3.764;2022-07-12T07:33:17;23.40;99.90
13446;DHT22;6795;51.232;3.764;2022-07-12T07:35:47;23.60;99.90
13446;DHT22;6795;51.232;3.764;2022-07-12T07:38:16;23.70;99.90
13446;DHT22;6795;51.232;3.764;2022-07-12T07:40:46;23.80;99.90
13446;DHT22;6795;51.232;3.764;2022-07-12T07:43:14;23.90;99.90
13446;DHT22;6795;51.232;3.764;2022-07-12T07:45:42;24.10;99.90
13446;DHT22;6795;51.232;3.764;2022-07-12T07:48:11;24.40;99.90
13446;DHT22;6795;51.232;3.764;2022-07-12T07:50:50;24.50;99.90
13446;DHT22;6795;51.232;3.764;2022-07-12T07:53:19;24.70;99.90
13446;DHT22;6795;51.232;3.764;2022-07-12T07:55:48;25.00;99.90
13446;DHT22;6795;51.232;3.764;2022-07-12T07:58:17;25.20;99.90
13446;DHT22;6795;51.232;3.764;2022-07-12T08:00:49;25.30;99.90
13446;DHT22;6795;51.232;3.764;2022-07-12T08:03:18;25.20;99.90
13446;DHT22;6795;51.232;3.764;2022-07-12T08:05:46;25.20;99.90
13446;DHT22;6795;51.232;3.764;2022-07-12T08:08:15;25.30;99.90
13446;DHT22;6795;51.232;3.764;2022-07-12T08:10:43;25.80;99.90
13446;DHT22;6795;51.232;3.764;2022-07-12T08:13:13;26.20;99.90
13446;DHT22;6795;51.232;3.764;2022-07-12T08:15:41;26.50;99.90
13446;DHT22;6795;51.232;3.764;2022-07-12T08:18:09;26.60;99.90
13446;DHT22;6795;51.232;3.764;2022-07-12T08:20:38;26.80;99.90
13446;DHT22;6795;51.232;3.764;2022-07-12T08:23:15;26.80;99.90
13446;DHT22;6795;51.232;3.764;2022-07-12T08:25:43;26.40;99.90
13446;DHT22;6795;51.232;3.764;2022-07-12T08:28:13;26.00;99.90
13446;DHT22;6795;51.232;3.764;2022-07-12T08:30:41;25.60;99.90
13446;DHT22;6795;51.232;3.764;2022-07-12T08:33:13;25.40;99.90
13446;DHT22;6795;51.232;3.764;2022-07-12T08:35:42;25.10;99.90
13446;DHT22;6795;51.232;3.764;2022-07-12T08:38:11;25.00;99.90
13446;DHT22;6795;51.232;3.764;2022-07-12T08:40:41;25.00;99.90
13446;DHT22;6795;51.232;3.764;2022-07-12T08:43:09;25.00;99.90
13446;DHT22;6795;51.232;3.764;2022-07-12T08:45:39;25.10;99.90
13446;DHT22;6795;51.232;3.764;2022-07-12T08:48:09;25.60;99.90
13446;DHT22;6795;51.232;3.764;2022-07-12T08:50:37;26.00;99.90
13446;DHT22;6795;51.232;3.764;2022-07-12T08:53:12;26.20;99.90
13446;DHT22;6795;51.232;3.764;2022-07-12T08:55:41;26.50;99.90
13446;DHT22;6795;51.232;3.764;2022-07-12T08:58:15;26.60;99.90
13446;DHT22;6795;51.232;3.764;2022-07-12T09:00:46;26.50;99.90
13446;DHT22;6795;51.232;3.764;2022-07-12T09:03:17;26.20;99.90
13446;DHT22;6795;51.232;3.764;2022-07-12T09:05:50;26.40;99.90
13446;DHT22;6795;51.232;3.764;2022-07-12T09:08:24;26.50;99.90
13446;DHT22;6795;51.232;3.764;2022-07-12T09:10:59;26.60;99.90
13446;DHT22;6795;51.232;3.764;2022-07-12T09:13:49;26.90;99.90
13446;DHT22;6795;51.232;3.764;2022-07-12T09:16:21;26.90;99.90
13446;DHT22;6795;51.232;3.764;2022-07-12T09:18:50;27.00;99.90
13446;DHT22;6795;51.232;3.764;2022-07-12T09:21:24;27.10;99.90
13446;DHT22;6795;51.232;3.764;2022-07-12T09:23:54;27.20;99.90
13446;DHT22;6795;51.232;3.764;2022-07-12T09:26:29;27.40;99.90
13446;DHT22;6795;51.232;3.764;2022-07-12T09:29:05;27.30;99.90
13446;DHT22;6795;51.232;3.764;2022-07-12T09:31:47;27.20;99.90
13446;DHT22;6795;51.232;3.764;2022-07-12T09:34:33;27.40;99.90
13446;DHT22;6795;51.232;3.764;2022-07-12T09:37:20;27.50;99.90
13446;DHT22;6795;51.232;3.764;2022-07-12T09:39:48;27.20;99.90
13446;DHT22;6795;51.232;3.764;2022-07-12T09:42:18;27.40;99.90
13446;DHT22;6795;51.232;3.764;2022-07-12T09:44:55;27.40;99.90
13446;DHT22;6795;51.232;3.764;2022-07-12T09:47:25;27.40;99.90
13446;DHT22;6795;51.232;3.764;2022-07-12T09:49:54;27.70;99.90
13446;DHT22;6795;51.232;3.764;2022-07-12T09:52:24;27.60;99.90
13446;DHT22;6795;51.232;3.764;2022-07-12T09:54:54;27.90;99.90
13446;DHT22;6795;51.232;3.764;2022-07-12T09:57:26;28.10;99.90
13446;DHT22;6795;51.232;3.764;2022-07-12T09:59:57;28.30;99.90
13446;DHT22;6795;51.232;3.764;2022-07-12T10:02:27;28.40;99.90
13446;DHT22;6795;51.232;3.764;2022-07-12T10:04:57;28.50;99.70
13446;DHT22;6795;51.232;3.764;2022-07-12T10:07:28;28.40;98.00
13446;DHT22;6795;51.232;3.764;2022-07-12T10:09:57;28.50;96.00
13446;DHT22;6795;51.232;3.764;2022-07-12T10:12:26;27.90;96.10
13446;DHT22;6795;51.232;3.764;2022-07-12T10:14:59;27.40;96.00
13446;DHT22;6795;51.232;3.764;2022-07-12T10:17:29;27.70;98.20
13446;DHT22;6795;51.232;3.764;2022-07-12T10:20:19;28.20;97.90
13446;DHT22;6795;51.232;3.764;2022-07-12T10:22:49;28.60;97.00
13446;DHT22;6795;51.232;3.764;2022-07-12T10:25:28;28.80;97.20
13446;DHT22;6795;51.232;3.764;2022-07-12T10:27:56;28.90;97.10
13446;DHT22;6795;51.232;3.764;2022-07-12T10:30:26;28.90;96.90
13446;DHT22;6795;51.232;3.764;2022-07-12T10:32:58;29.10;97.60
13446;DHT22;6795;51.232;3.764;2022-07-12T10:35:29;29.20;97.00
13446;DHT22;6795;51.232;3.764;2022-07-12T10:38:20;29.30;96.40
13446;DHT22;6795;51.232;3.764;2022-07-12T10:40:50;29.30;96.60
13446;DHT22;6795;51.232;3.764;2022-07-12T10:43:20;29.40;96.60
13446;DHT22;6795;51.232;3.764;2022-07-12T10:46:22;29.80;95.60
13446;DHT22;6795;51.232;3.764;2022-07-12T10:49:27;30.10;95.00
13446;DHT22;6795;51.232;3.764;2022-07-12T10:52:25;30.00;94.30
13446;DHT22;6795;51.232;3.764;2022-07-12T10:55:26;30.10;94.80
13446;DHT22;6795;51.232;3.764;2022-07-12T10:57:55;30.20;92.20
13446;DHT22;6795;51.232;3.764;2022-07-12T11:00:23;30.20;92.80
13446;DHT22;6795;51.232;3.764;2022-07-12T11:02:53;30.20;91.20
13446;DHT22;6795;51.232;3.764;2022-07-12T11:05:27;30.10;92.10
13446;DHT22;6795;51.232;3.764;2022-07-12T11:07:55;30.60;92.10
13446;DHT22;6795;51.232;3.764;2022-07-12T11:10:24;31.00;90.10
13446;DHT22;6795;51.232;3.764;2022-07-12T11:12:52;31.00;86.50
13446;DHT22;6795;51.232;3.764;2022-07-12T11:15:23;31.50;86.70
13446;DHT22;6795;51.232;3.764;2022-07-12T11:17:53;31.30;83.80
13446;DHT22;6795;51.232;3.764;2022-07-12T11:20:29;31.30;81.10
13446;DHT22;6795;51.232;3.764;2022-07-12T11:22:57;31.50;81.70
13446;DHT22;6795;51.232;3.764;2022-07-12T11:25:25;31.80;81.50
13446;DHT22;6795;51.232;3.764;2022-07-12T11:27:54;32.10;80.80
13446;DHT22;6795;51.232;3.764;2022-07-12T11:30:22;32.40;77.40
13446;DHT22;6795;51.232;3.764;2022-07-12T11:32:51;32.30;76.00
13446;DHT22;6795;51.232;3.764;2022-07-12T11:35:23;32.60;76.60
13446;DHT22;6795;51.232;3.764;2022-07-12T11:37:55;32.70;73.30
13446;DHT22;6795;51.232;3.764;2022-07-12T11:40:27;32.70;71.80
13446;DHT22;6795;51.232;3.764;2022-07-12T11:42:57;32.50;74.30
13446;DHT22;6795;51.232;3.764;2022-07-12T11:45:27;32.70;71.10
13446;DHT22;6795;51.232;3.764;2022-07-12T11:47:57;32.80;74.10
13446;DHT22;6795;51.232;3.764;2022-07-12T11:50:29;33.00;72.00
13446;DHT22;6795;51.232;3.764;2022-07-12T11:53:03;33.20;73.40
13446;DHT22;6795;51.232;3.764;2022-07-12T11:55:41;33.20;68.30
13446;DHT22;6795;51.232;3.764;2022-07-12T11:58:11;33.20;70.50
13446;DHT22;6795;51.232;3.764;2022-07-12T12:00:40;33.50;69.40
13446;DHT22;6795;51.232;3.764;2022-07-12T12:03:10;32.90;69.10
13446;DHT22;6795;51.232;3.764;2022-07-12T12:05:39;32.40;68.20
13446;DHT22;6795;51.232;3.764;2022-07-12T12:08:11;32.70;68.10
13446;DHT22;6795;51.232;3.764;2022-07-12T12:10:40;32.30;69.30
13446;DHT22;6795;51.232;3.764;2022-07-12T12:13:16;32.50;70.90
13446;DHT22;6795;51.232;3.764;2022-07-12T12:15:49;32.90;72.20
13446;DHT22;6795;51.232;3.764;2022-07-12T12:18:30;33.20;68.40
13446;DHT22;6795;51.232;3.764;2022-07-12T12:21:00;32.20;68.90
13446;DHT22;6795;51.232;3.764;2022-07-12T12:23:30;32.20;66.70
13446;DHT22;6795;51.232;3.764;2022-07-12T12:26:13;33.00;69.70
13446;DHT22;6795;51.232;3.764;2022-07-12T12:28:47;33.40;67.20
13446;DHT22;6795;51.232;3.764;2022-07-12T12:31:17;32.60;65.40
13446;DHT22;6795;51.232;3.764;2022-07-12T12:33:47;33.00;64.70
13446;DHT22;6795;51.232;3.764;2022-07-12T12:36:19;32.60;63.10
13446;DHT22;6795;51.232;3.764;2022-07-12T12:38:51;33.10;66.00
13446;DHT22;6795;51.232;3.764;2022-07-12T12:41:20;33.80;65.40
13446;DHT22;6795;51.232;3.764;2022-07-12T12:43:57;33.70;61.60
13446;DHT22;6795;51.232;3.764;2022-07-12T12:46:46;34.30;62.50
13446;DHT22;6795;51.232;3.764;2022-07-12T12:49:15;34.40;61.40
13446;DHT22;6795;51.232;3.764;2022-07-12T12:51:54;34.60;60.80
13446;DHT22;6795;51.232;3.764;2022-07-12T12:54:34;34.70;63.80
13446;DHT22;6795;51.232;3.764;2022-07-12T12:57:03;34.90;59.20
13446;DHT22;6795;51.232;3.764;2022-07-12T12:59:32;34.50;59.20
13446;DHT22;6795;51.232;3.764;2022-07-12T13:02:01;34.00;55.90
13446;DHT22;6795;51.232;3.764;2022-07-12T13:04:30;34.10;58.40
13446;DHT22;6795;51.232;3.764;2022-07-12T13:06:59;34.50;55.60
13446;DHT22;6795;51.232;3.764;2022-07-12T13:09:34;35.00;54.50
13446;DHT22;6795;51.232;3.764;2022-07-12T13:12:03;35.60;54.70
13446;DHT22;6795;51.232;3.764;2022-07-12T13:14:33;36.10;56.80
13446;DHT22;6795;51.232;3.764;2022-07-12T13:17:01;35.70;55.90
13446;DHT22;6795;51.232;3.764;2022-07-12T13:19:30;35.00;53.70
13446;DHT22;6795;51.232;3.764;2022-07-12T13:21:59;33.90;53.50
13446;DHT22;6795;51.232;3.764;2022-07-12T13:24:27;34.50;57.30
13446;DHT22;6795;51.232;3.764;2022-07-12T13:26:57;35.40;57.20
13446;DHT22;6795;51.232;3.764;2022-07-12T13:29:25;35.30;57.60
13446;DHT22;6795;51.232;3.764;2022-07-12T13:31:54;35.50;55.40
13446;DHT22;6795;51.232;3.764;2022-07-12T13:34:23;35.50;54.60
13446;DHT22;6795;51.232;3.764;2022-07-12T13:36:51;34.50;53.40
13446;DHT22;6795;51.232;3.764;2022-07-12T13:39:20;33.80;56.80
13446;DHT22;6795;51.232;3.764;2022-07-12T13:42:07;34.90;57.30
13446;DHT22;6795;51.232;3.764;2022-07-12T13:44:35;35.10;57.10
13446;DHT22;6795;51.232;3.764;2022-07-12T13:47:04;34.60;54.30
13446;DHT22;6795;51.232;3.764;2022-07-12T13:49:32;34.70;55.80
13446;DHT22;6795;51.232;3.764;2022-07-12T13:52:01;35.40;57.60
13446;DHT22;6795;51.232;3.764;2022-07-12T13:54:29;35.70;56.20
13446;DHT22;6795;51.232;3.764;2022-07-12T13:56:57;35.70;56.10
13446;DHT22;6795;51.232;3.764;2022-07-12T13:59:28;35.90;56.00
13446;DHT22;6795;51.232;3.764;2022-07-12T14:01:58;35.40;54.80
13446;DHT22;6795;51.232;3.764;2022-07-12T14:04:28;34.80;56.10
13446;DHT22;6795;51.232;3.764;2022-07-12T14:06:56;34.70;54.60
13446;DHT22;6795;51.232;3.764;2022-07-12T14:09:25;34.30;56.60
13446;DHT22;6795;51.232;3.764;2022-07-12T14:11:53;34.70;56.20
13446;DHT22;6795;51.232;3.764;2022-07-12T14:14:21;35.10;56.90
13446;DHT22;6795;51.232;3.764;2022-07-12T14:17:15;35.40;54.80
13446;DHT22;6795;51.232;3.764;2022-07-12T14:19:43;34.90;55.80
13446;DHT22;6795;51.232;3.764;2022-07-12T14:22:12;34.70;57.60
13446;DHT22;6795;51.232;3.764;2022-07-12T14:24:40;34.80;55.00
13446;DHT22;6795;51.232;3.764;2022-07-12T14:27:08;34.80;54.00
13446;DHT22;6795;51.232;3.764;2022-07-12T14:29:36;34.60;53.50
13446;DHT22;6795;51.232;3.764;2022-07-12T14:32:05;34.40;56.30
13446;DHT22;6795;51.232;3.764;2022-07-12T14:34:36;34.40;56.80
13446;DHT22;6795;51.232;3.764;2022-07-12T14:37:04;34.80;57.30
13446;DHT22;6795;51.232;3.764;2022-07-12T14:39:33;35.20;57.10
13446;DHT22;6795;51.232;3.764;2022-07-12T14:42:01;35.70;55.20
13446;DHT22;6795;51.232;3.764;2022-07-12T14:44:29;35.70;55.10
13446;DHT22;6795;51.232;3.764;2022-07-12T14:46:57;35.90;53.00
13446;DHT22;6795;51.232;3.764;2022-07-12T14:49:26;35.30;54.70
13446;DHT22;6795;51.232;3.764;2022-07-12T14:51:57;34.90;54.50
13446;DHT22;6795;51.232;3.764;2022-07-12T14:54:26;34.70;55.70
13446;DHT22;6795;51.232;3.764;2022-07-12T14:56:54;34.70;54.00
13446;DHT22;6795;51.232;3.764;2022-07-12T14:59:23;34.20;54.60
13446;DHT22;6795;51.232;3.764;2022-07-12T15:01:51;34.40;52.90
13446;DHT22;6795;51.232;3.764;2022-07-12T15:04:19;34.40;53.50
13446;DHT22;6795;51.232;3.764;2022-07-12T15:06:48;34.50;53.90
13446;DHT22;6795;51.232;3.764;2022-07-12T15:09:18;34.20;55.60
13446;DHT22;6795;51.232;3.764;2022-07-12T15:11:46;33.90;52.90
13446;DHT22;6795;51.232;3.764;2022-07-12T15:14:14;33.90;56.20
13446;DHT22;6795;51.232;3.764;2022-07-12T15:16:43;34.10;56.20
13446;DHT22;6795;51.232;3.764;2022-07-12T15:19:11;34.20;56.90
13446;DHT22;6795;51.232;3.764;2022-07-12T15:21:39;34.30;53.30
13446;DHT22;6795;51.232;3.764;2022-07-12T15:24:08;34.30;55.20
13446;DHT22;6795;51.232;3.764;2022-07-12T15:26:37;34.40;54.90
13446;DHT22;6795;51.232;3.764;2022-07-12T15:29:06;34.70;55.40
13446;DHT22;6795;51.232;3.764;2022-07-12T15:31:34;34.30;53.80
13446;DHT22;6795;51.232;3.764;2022-07-12T15:34:03;33.90;54.20
13446;DHT22;6795;51.232;3.764;2022-07-12T15:36:32;33.60;53.20
13446;DHT22;6795;51.232;3.764;2022-07-12T15:39:00;33.30;54.00
13446;DHT22;6795;51.232;3.764;2022-07-12T15:41:30;33.40;54.80
13446;DHT22;6795;51.232;3.764;2022-07-12T15:43:59;33.50;54.70
13446;DHT22;6795;51.232;3.764;2022-07-12T15:46:30;33.70;54.90
13446;DHT22;6795;51.232;3.764;2022-07-12T15:48:59;33.90;52.50
13446;DHT22;6795;51.232;3.764;2022-07-12T15:51:27;34.30;54.40
13446;DHT22;6795;51.232;3.764;2022-07-12T15:54:09;35.10;53.40
13446;DHT22;6795;51.232;3.764;2022-07-12T15:56:38;35.30;52.90
13446;DHT22;6795;51.232;3.764;2022-07-12T15:59:07;35.60;52.40
13446;DHT22;6795;51.232;3.764;2022-07-12T16:01:36;35.80;53.70
13446;DHT22;6795;51.232;3.764;2022-07-12T16:04:04;35.90;53.60